Time,TemperatureF,DewpointF,PressureIn,WindDirection,WindDirectionDegrees,WindSpeedMPH,WindSpeedGustMPH,Humidity,HourlyPrecipIn,Conditions,Clouds,dailyrainin,SoftwareType,DateUTC
2013-09-29 00:01:00,50.2,44.0,30.05,WNW,286,0.0,1.0,80,0.00,,,0.08,weatherlink.com 1.10,2013-09-29 05:01:00,
2013-09-29 00:16:00,49.9,44.0,30.06,WNW,286,0.0,0.0,80,0.00,,,0.00,weatherlink.com 1.10,2013-09-29 05:16:00,
2013-09-29 00:31:00,49.7,44.0,30.06,WNW,286,0.0,0.0,81,0.00,,,0.00,weatherlink.com 1.10,2013-09-29 05:31:00,
2013-09-29 00:46:00,49.2,44.0,30.06,WNW,286,0.0,0.0,81,0.00,,,0.00,weatherlink.com 1.10,2013-09-29 05:46:00,
2013-09-29 01:01:00,49.1,44.0,30.06,WNW,286,0.0,1.0,81,0.00,,,0.00,weatherlink.com 1.10,2013-09-29 06:01:00,
2013-09-29 01:16:00,49.1,44.0,30.06,WNW,286,0.0,1.0,81,0.00,,,0.00,weatherlink.com 1.10,2013-09-29 06:16:00,
2013-09-29 01:31:00,48.6,43.0,30.07,WNW,286,0.0,0.0,82,0.00,,,0.00,weatherlink.com 1.10,2013-09-29 06:31:00,
2013-09-29 01:46:00,48.1,43.0,30.07,WNW,286,0.0,0.0,82,0.00,,,0.00,weatherlink.com 1.10,2013-09-29 06:46:00,
2013-09-29 02:01:00,47.8,43.0,30.07,WNW,286,0.0,1.0,82,0.00,,,0.00,weatherlink.com 1.10,2013-09-29 07:01:00,
2013-09-29 02:16:00,47.6,42.0,30.07,WNW,286,0.0,0.0,82,0.00,,,0.00,weatherlink.com 1.10,2013-09-29 07:16:00,
2013-09-29 02:31:00,47.6,42.0,30.07,WNW,286,0.0,0.0,81,0.00,,,0.00,weatherlink.com 1.10,2013-09-29 07:31:00,
2013-09-29 02:46:00,47.2,42.0,30.07,WNW,286,0.0,2.0,81,0.00,,,0.00,weatherlink.com 1.10,2013-09-29 07:46:00,
2013-09-29 03:01:00,47.4,42.0,30.06,WNW,286,0.0,2.0,80,0.00,,,0.00,weatherlink.com 1.10,2013-09-29 08:01:00,
2013-09-29 03:16:00,47.4,42.0,30.07,WNW,286,0.0,2.0,80,0.00,,,0.00,weatherlink.com 1.10,2013-09-29 08:16:00,
2013-09-29 03:31:00,47.4,42.0,30.06,WNW,286,0.0,2.0,82,0.00,,,0.00,weatherlink.com 1.10,2013-09-29 08:31:00,
2013-09-29 03:46:00,47.1,42.0,30.06,WNW,286,0.0,0.0,82,0.00,,,0.00,weatherlink.com 1.10,2013-09-29 08:46:00,
2013-09-29 04:01:00,46.5,41.0,30.06,WNW,286,0.0,1.0,82,0.00,,,0.00,weatherlink.com 1.10,2013-09-29 09:01:00,
2013-09-29 04:16:00,46.8,41.0,30.06,WNW,286,0.0,2.0,81,0.00,,,0.00,weatherlink.com 1.10,2013-09-29 09:16:00,
2013-09-29 04:31:00,47.3,41.0,30.06,WNW,286,0.0,1.0,80,0.00,,,0.00,weatherlink.com 1.10,2013-09-29 09:31:00,
2013-09-29 04:46:00,47.2,41.0,30.06,WNW,286,0.0,0.0,79,0.00,,,0.00,weatherlink.com 1.10,2013-09-29 09:46:00,
2013-09-29 05:01:00,46.8,41.0,30.06,WNW,286,0.0,0.0,79,0.00,,,0.00,weatherlink.com 1.10,2013-09-29 10:01:00,
2013-09-29 05:16:00,46.6,41.0,30.07,WNW,286,0.0,3.0,80,0.00,,,0.00,weatherlink.com 1.10,2013-09-29 10:16:00,
2013-09-29 05:31:00,47.6,41.0,30.07,WNW,286,0.0,1.0,79,0.00,,,0.00,weatherlink.com 1.10,2013-09-29 10:31:00,
2013-09-29 05:46:00,48.0,41.0,30.07,WNW,286,0.0,3.0,76,0.00,,,0.00,weatherlink.com 1.10,2013-09-29 10:46:00,
2013-09-29 06:01:00,48.1,41.0,30.07,WNW,286,0.0,2.0,76,0.00,,,0.00,weatherlink.com 1.10,2013-09-29 11:01:00,
2013-09-29 06:16:00,48.1,41.0,30.08,WNW,290,0.0,3.0,76,0.00,,,0.00,weatherlink.com 1.10,2013-09-29 11:16:00,
2013-09-29 06:31:00,48.0,40.0,30.08,WNW,289,0.0,2.0,75,0.00,,,0.00,weatherlink.com 1.10,2013-09-29 11:31:00,
2013-09-29 06:46:00,48.2,40.0,30.08,WNW,288,0.0,3.0,74,0.00,,,0.00,weatherlink.com 1.10,2013-09-29 11:46:00,
2013-09-29 07:01:00,48.3,40.0,30.09,WNW,288,1.0,4.0,74,0.00,,,0.00,weatherlink.com 1.10,2013-09-29 12:01:00,
2013-09-29 07:17:00,48.3,40.0,30.09,WNW,288,0.0,3.0,73,0.00,,,0.00,weatherlink.com 1.10,2013-09-29 12:17:00,
2013-09-29 07:32:00,48.2,40.0,30.09,WNW,288,0.0,1.0,74,0.00,,,0.00,weatherlink.com 1.10,2013-09-29 12:32:00,
2013-09-29 07:47:00,48.5,41.0,30.09,WNW,287,4.0,5.0,75,0.00,,,0.00,weatherlink.com 1.10,2013-09-29 12:47:00,
2013-09-29 08:02:00,49.0,41.0,30.09,West,269,0.0,4.0,74,0.00,,,0.00,weatherlink.com 1.10,2013-09-29 13:02:00,
2013-09-29 08:17:00,49.9,41.0,30.09,South,188,0.0,7.0,72,0.00,,,0.00,weatherlink.com 1.10,2013-09-29 13:17:00,
2013-09-29 08:32:00,50.5,42.0,30.09,South,190,0.0,1.0,72,0.00,,,0.00,weatherlink.com 1.10,2013-09-29 13:32:00,
2013-09-29 08:47:00,51.7,43.0,30.09,SSW,202,0.0,5.0,71,0.00,,,0.00,weatherlink.com 1.10,2013-09-29 13:47:00,
2013-09-29 09:02:00,53.2,43.0,30.09,NW,312,0.0,7.0,68,0.00,,,0.00,weatherlink.com 1.10,2013-09-29 14:02:00,
2013-09-29 09:17:00,54.4,44.0,30.09,WNW,295,0.0,8.0,67,0.00,,,0.00,weatherlink.com 1.10,2013-09-29 14:17:00,
2013-09-29 09:32:00,55.3,44.0,30.09,WSW,252,0.0,4.0,67,0.00,,,0.00,weatherlink.com 1.10,2013-09-29 14:32:00,
2013-09-29 09:47:00,56.5,45.0,30.09,WNW,290,1.0,9.0,66,0.00,,,0.00,weatherlink.com 1.10,2013-09-29 14:47:00,
2013-09-29 10:02:00,57.9,46.0,30.09,WNW,291,2.0,7.0,65,0.00,,,0.00,weatherlink.com 1.10,2013-09-29 15:02:00,
2013-09-29 10:17:00,59.2,46.0,30.09,West,271,0.0,7.0,62,0.00,,,0.00,weatherlink.com 1.10,2013-09-29 15:17:00,
2013-09-29 10:32:00,60.9,46.0,30.09,South,186,0.0,4.0,59,0.00,,,0.00,weatherlink.com 1.10,2013-09-29 15:32:00,
2013-09-29 10:47:00,63.2,47.0,30.09,WNW,286,0.0,9.0,55,0.00,,,0.00,weatherlink.com 1.10,2013-09-29 15:47:00,
2013-09-29 11:03:00,65.4,44.0,30.08,SSW,194,3.0,5.0,47,0.00,,,0.00,weatherlink.com 1.10,2013-09-29 16:03:00,
2013-09-29 11:17:00,66.7,45.0,30.08,SSW,210,0.0,8.0,46,0.00,,,0.00,weatherlink.com 1.10,2013-09-29 16:17:00,
2013-09-29 11:32:00,67.9,45.0,30.08,West,273,1.0,8.0,44,0.00,,,0.00,weatherlink.com 1.10,2013-09-29 16:32:00,
2013-09-29 11:47:00,68.8,45.0,30.07,WNW,282,1.0,9.0,42,0.00,,,0.00,weatherlink.com 1.10,2013-09-29 16:47:00,
2013-09-29 12:02:00,69.8,45.0,30.07,West,281,1.0,8.0,41,0.00,,,0.00,weatherlink.com 1.10,2013-09-29 17:02:00,
2013-09-29 12:18:00,70.4,45.0,30.06,East,97,1.0,7.0,40,0.00,,,0.00,weatherlink.com 1.10,2013-09-29 17:18:00,
2013-09-29 12:33:00,70.5,44.0,30.06,SW,223,0.0,9.0,38,0.00,,,0.00,weatherlink.com 1.10,2013-09-29 17:33:00,
2013-09-29 12:48:00,71.5,44.0,30.05,SSW,196,1.0,15.0,37,0.00,,,0.00,weatherlink.com 1.10,2013-09-29 17:48:00,
2013-09-29 13:03:00,72.7,44.0,30.04,West,273,0.0,6.0,36,0.00,,,0.00,weatherlink.com 1.10,2013-09-29 18:03:00,
2013-09-29 13:18:00,72.9,42.0,30.03,SSW,192,0.0,8.0,33,0.00,,,0.00,weatherlink.com 1.10,2013-09-29 18:18:00,
2013-09-29 13:33:00,74.0,42.0,30.02,WSW,253,2.0,9.0,32,0.00,,,0.00,weatherlink.com 1.10,2013-09-29 18:33:00,
2013-09-29 14:03:00,74.3,43.0,30.00,SSW,208,5.0,10.0,32,0.00,,,0.00,weatherlink.com 1.10,2013-09-29 19:03:00,
2013-09-29 14:18:00,74.7,42.0,30.00,West,279,3.0,11.0,31,0.00,,,0.00,weatherlink.com 1.10,2013-09-29 19:18:00,
2013-09-29 14:33:00,75.0,41.0,29.99,West,270,1.0,11.0,29,0.00,,,0.00,weatherlink.com 1.10,2013-09-29 19:33:00,
2013-09-29 14:48:00,74.4,41.0,29.98,SSW,207,2.0,11.0,30,0.00,,,0.00,weatherlink.com 1.10,2013-09-29 19:48:00,
2013-09-29 15:03:00,74.7,42.0,29.98,SW,223,2.0,9.0,31,0.00,,,0.00,weatherlink.com 1.10,2013-09-29 20:03:00,
2013-09-29 15:18:00,74.6,43.0,29.97,WSW,240,3.0,8.0,32,0.00,,,0.00,weatherlink.com 1.10,2013-09-29 20:18:00,
2013-09-29 15:33:00,74.3,43.0,29.97,South,175,2.0,11.0,32,0.00,,,0.00,weatherlink.com 1.10,2013-09-29 20:33:00,
2013-09-29 15:48:00,73.7,41.0,29.97,SSW,194,2.0,10.0,31,0.00,,,0.00,weatherlink.com 1.10,2013-09-29 20:48:00,
2013-09-29 16:03:00,73.2,42.0,29.97,SE,133,0.0,11.0,32,0.00,,,0.00,weatherlink.com 1.10,2013-09-29 21:03:00,
2013-09-29 16:18:00,73.2,42.0,29.96,WSW,243,4.0,9.0,32,0.00,,,0.00,weatherlink.com 1.10,2013-09-29 21:18:00,
2013-09-29 16:33:00,73.2,42.0,29.96,SSW,192,5.0,11.0,33,0.00,,,0.00,weatherlink.com 1.10,2013-09-29 21:33:00,
2013-09-29 16:48:00,73.0,41.0,29.95,WNW,294,2.0,14.0,32,0.00,,,0.00,weatherlink.com 1.10,2013-09-29 21:48:00,
2013-09-29 17:03:00,72.8,42.0,29.95,WSW,252,0.0,9.0,33,0.00,,,0.00,weatherlink.com 1.10,2013-09-29 22:03:00,
2013-09-29 17:18:00,72.6,42.0,29.95,WSW,246,2.0,7.0,33,0.00,,,0.00,weatherlink.com 1.10,2013-09-29 22:18:00,
2013-09-29 17:33:00,72.1,41.0,29.95,WSW,248,0.0,9.0,33,0.00,,,0.00,weatherlink.com 1.10,2013-09-29 22:33:00,
2013-09-29 17:48:00,72.0,42.0,29.95,NNW,336,0.0,7.0,34,0.00,,,0.00,weatherlink.com 1.10,2013-09-29 22:48:00,
2013-09-29 18:03:00,70.9,43.0,29.95,SSE,161,6.0,6.0,37,0.00,,,0.00,weatherlink.com 1.10,2013-09-29 23:03:00,
2013-09-29 18:18:00,69.6,43.0,29.94,SSW,205,0.0,5.0,39,0.00,,,0.00,weatherlink.com 1.10,2013-09-29 23:18:00,
2013-09-29 18:33:00,68.3,44.0,29.94,SSW,203,0.0,6.0,42,0.00,,,0.00,weatherlink.com 1.10,2013-09-29 23:33:00,
2013-09-29 18:48:00,66.8,44.0,29.94,SW,216,0.0,7.0,44,0.00,,,0.00,weatherlink.com 1.10,2013-09-29 23:48:00,
2013-09-29 19:03:00,65.3,44.0,29.94,South,178,0.0,4.0,47,0.00,,,0.00,weatherlink.com 1.10,2013-09-30 00:03:00,
2013-09-29 19:18:00,63.8,45.0,29.94,SSW,205,0.0,1.0,50,0.00,,,0.00,weatherlink.com 1.10,2013-09-30 00:18:00,
2013-09-29 19:33:00,62.7,45.0,29.95,SSW,206,0.0,2.0,52,0.00,,,0.00,weatherlink.com 1.10,2013-09-30 00:33:00,
2013-09-29 19:48:00,61.3,44.0,29.95,SSW,207,0.0,2.0,54,0.00,,,0.00,weatherlink.com 1.10,2013-09-30 00:48:00,
2013-09-29 20:03:00,60.2,45.0,29.95,SSW,207,0.0,2.0,57,0.00,,,0.00,weatherlink.com 1.10,2013-09-30 01:03:00,
2013-09-29 20:18:00,59.3,45.0,29.95,SSW,206,0.0,4.0,59,0.00,,,0.00,weatherlink.com 1.10,2013-09-30 01:18:00,
2013-09-29 20:33:00,58.6,45.0,29.95,SSW,206,0.0,1.0,60,0.00,,,0.00,weatherlink.com 1.10,2013-09-30 01:33:00,
2013-09-29 20:48:00,58.1,45.0,29.96,SSW,205,0.0,3.0,61,0.00,,,0.00,weatherlink.com 1.10,2013-09-30 01:48:00,
2013-09-29 21:03:00,57.8,44.0,29.95,SSW,213,0.0,1.0,61,0.00,,,0.00,weatherlink.com 1.10,2013-09-30 02:03:00,
2013-09-29 21:18:00,57.7,44.0,29.95,ESE,110,0.0,3.0,61,0.00,,,0.00,weatherlink.com 1.10,2013-09-30 02:18:00,
2013-09-29 21:33:00,56.9,44.0,29.95,ESE,110,0.0,3.0,63,0.00,,,0.00,weatherlink.com 1.10,2013-09-30 02:33:00,
2013-09-29 21:48:00,56.1,44.0,29.96,ESE,115,0.0,3.0,65,0.00,,,0.00,weatherlink.com 1.10,2013-09-30 02:48:00,
2013-09-29 22:03:00,55.3,44.0,29.95,ESE,115,0.0,1.0,66,0.00,,,0.00,weatherlink.com 1.10,2013-09-30 03:03:00,
2013-09-29 22:18:00,54.5,44.0,29.95,ESE,116,0.0,2.0,68,0.00,,,0.00,weatherlink.com 1.10,2013-09-30 03:18:00,
2013-09-29 22:33:00,54.1,45.0,29.95,ESE,122,0.0,3.0,70,0.00,,,0.00,weatherlink.com 1.10,2013-09-30 03:33:00,
2013-09-29 22:48:00,54.7,45.0,29.95,SSE,158,0.0,6.0,69,0.00,,,0.00,weatherlink.com 1.10,2013-09-30 03:48:00,
2013-09-29 23:03:00,54.6,45.0,29.95,SSE,161,0.0,1.0,69,0.00,,,0.00,weatherlink.com 1.10,2013-09-30 04:03:00,
2013-09-29 23:18:00,54.2,45.0,29.96,SSE,167,0.0,3.0,70,0.00,,,0.00,weatherlink.com 1.10,2013-09-30 04:18:00,
2013-09-29 23:33:00,54.6,45.0,29.95,SSW,194,0.0,6.0,70,0.00,,,0.00,weatherlink.com 1.10,2013-09-30 04:33:00,
2013-09-29 23:48:00,54.6,45.0,29.95,West,259,1.0,4.0,69,0.00,,,0.00,weatherlink.com 1.10,2013-09-30 04:48:00,